sensor_id;sensor_type;location;lat;lon;timestamp;temperature;humidity
31731;DHT22;18310;55.586;12.286;2023-03-01T00:01:25;3.60;68.40
31731;DHT22;18310;55.586;12.286;2023-03-01T00:04:30;1.70;67.50
31731;DHT22;18310;55.586;12.286;2023-03-01T00:07:34;3.50;68.40
31731;DHT22;18310;55.586;12.286;2023-03-01T00:10:37;3.40;68.80
31731;DHT22;18310;55.586;12.286;2023-03-01T00:13:42;5.60;69.50
31731;DHT22;18310;55.586;12.286;2023-03-01T00:16:51;3.50;68.30
31731;DHT22;18310;55.586;12.286;2023-03-01T00:19:55;3.40;68.20
31731;DHT22;18310;55.586;12.286;2023-03-01T00:22:59;3.40;68.20
31731;DHT22;18310;55.586;12.286;2023-03-01T00:26:07;3.30;68.30
31731;DHT22;18310;55.586;12.286;2023-03-01T00:29:12;3.30;68.40
31731;DHT22;18310;55.586;12.286;2023-03-01T00:32:17;3.30;68.50
31731;DHT22;18310;55.586;12.286;2023-03-01T00:35:21;3.30;69.10
31731;DHT22;18310;55.586;12.286;2023-03-01T00:38:25;3.30;69.10
31731;DHT22;18310;55.586;12.286;2023-03-01T00:41:30;1.70;68.00
31731;DHT22;18310;55.586;12.286;2023-03-01T00:44:36;3.30;68.10
31731;DHT22;18310;55.586;12.286;2023-03-01T00:47:41;5.30;69.20
31731;DHT22;18310;55.586;12.286;2023-03-01T00:50:45;3.30;68.20
31731;DHT22;18310;55.586;12.286;2023-03-01T00:53:49;3.40;68.40
31731;DHT22;18310;55.586;12.286;2023-03-01T00:56:53;3.20;69.00
31731;DHT22;18310;55.586;12.286;2023-03-01T00:59:57;3.20;68.30
31731;DHT22;18310;55.586;12.286;2023-03-01T01:03:03;2.80;68.10
31731;DHT22;18310;55.586;12.286;2023-03-01T01:06:14;2.30;68.10
31731;DHT22;18310;55.586;12.286;2023-03-01T01:09:23;3.20;68.80
31731;DHT22;18310;55.586;12.286;2023-03-01T01:12:28;3.20;68.80
31731;DHT22;18310;55.586;12.286;2023-03-01T01:15:34;3.10;69.50
31731;DHT22;18310;55.586;12.286;2023-03-01T01:18:39;4.60;69.20
31731;DHT22;18310;55.586;12.286;2023-03-01T01:21:43;3.20;68.50
31731;DHT22;18310;55.586;12.286;2023-03-01T01:24:48;3.10;68.50
31731;DHT22;18310;55.586;12.286;2023-03-01T01:27:51;3.10;68.50
31731;DHT22;18310;55.586;12.286;2023-03-01T01:30:56;3.10;68.40
31731;DHT22;18310;55.586;12.286;2023-03-01T01:34:05;3.10;68.40
31731;DHT22;18310;55.586;12.286;2023-03-01T01:37:12;3.00;68.40
31731;DHT22;18310;55.586;12.286;2023-03-01T01:40:21;1.60;67.90
31731;DHT22;18310;55.586;12.286;2023-03-01T01:43:25;3.00;68.40
31731;DHT22;18310;55.586;12.286;2023-03-01T01:46:32;3.00;69.30
31731;DHT22;18310;55.586;12.286;2023-03-01T01:49:42;3.00;68.50
31731;DHT22;18310;55.586;12.286;2023-03-01T01:52:50;2.90;68.80
31731;DHT22;18310;55.586;12.286;2023-03-01T01:55:58;2.90;68.90
31731;DHT22;18310;55.586;12.286;2023-03-01T01:59:04;2.90;69.20
31731;DHT22;18310;55.586;12.286;2023-03-01T02:02:12;2.90;69.40
31731;DHT22;18310;55.586;12.286;2023-03-01T02:05:28;3.10;69.80
31731;DHT22;18310;55.586;12.286;2023-03-01T02:08:42;2.90;69.90
31731;DHT22;18310;55.586;12.286;2023-03-01T02:11:49;2.80;69.70
31731;DHT22;18310;55.586;12.286;2023-03-01T02:14:54;1.90;69.30
31731;DHT22;18310;55.586;12.286;2023-03-01T02:17:59;2.80;69.90
31731;DHT22;18310;55.586;12.286;2023-03-01T02:21:27;2.70;70.10
31731;DHT22;18310;55.586;12.286;2023-03-01T02:25:12;2.90;71.10
31731;DHT22;18310;55.586;12.286;2023-03-01T02:28:31;2.50;70.70
31731;DHT22;18310;55.586;12.286;2023-03-01T02:31:36;2.90;71.00
31731;DHT22;18310;55.586;12.286;2023-03-01T02:34:47;2.90;71.00
31731;DHT22;18310;55.586;12.286;2023-03-01T02:37:52;3.20;71.10
31731;DHT22;18310;55.586;12.286;2023-03-01T02:41:05;2.80;71.00
31731;DHT22;18310;55.586;12.286;2023-03-01T02:44:13;3.10;71.20
31731;DHT22;18310;55.586;12.286;2023-03-01T02:47:20;3.10;71.60
31731;DHT22;18310;55.586;12.286;2023-03-01T02:50:42;3.10;70.90
31731;DHT22;18310;55.586;12.286;2023-03-01T02:54:12;3.20;72.00
31731;DHT22;18310;55.586;12.286;2023-03-01T02:57:22;3.30;71.80
31731;DHT22;18310;55.586;12.286;2023-03-01T03:00:33;3.30;71.60
31731;DHT22;18310;55.586;12.286;2023-03-01T03:03:42;3.30;71.80
31731;DHT22;18310;55.586;12.286;2023-03-01T03:06:50;3.40;71.70
31731;DHT22;18310;55.586;12.286;2023-03-01T03:09:58;3.20;71.70
31731;DHT22;18310;55.586;12.286;2023-03-01T03:13:02;3.50;71.90
31731;DHT22;18310;55.586;12.286;2023-03-01T03:16:09;3.50;73.30
31731;DHT22;18310;55.586;12.286;2023-03-01T03:19:19;3.50;71.80
31731;DHT22;18310;55.586;12.286;2023-03-01T03:22:22;3.50;71.90
31731;DHT22;18310;55.586;12.286;2023-03-01T03:25:27;3.60;73.30
31731;DHT22;18310;55.586;12.286;2023-03-01T03:28:32;3.60;71.80
31731;DHT22;18310;55.586;12.286;2023-03-01T03:31:42;3.60;71.80
31731;DHT22;18310;55.586;12.286;2023-03-01T03:35:00;3.60;72.10
31731;DHT22;18310;55.586;12.286;2023-03-01T03:38:09;5.40;73.00
31731;DHT22;18310;55.586;12.286;2023-03-01T03:41:19;3.40;72.10
31731;DHT22;18310;55.586;12.286;2023-03-01T03:44:26;3.70;72.10
31731;DHT22;18310;55.586;12.286;2023-03-01T03:47:44;4.10;73.80
31731;DHT22;18310;55.586;12.286;2023-03-01T03:51:02;3.70;72.00
31731;DHT22;18310;55.586;12.286;2023-03-01T03:54:11;1.80;70.80
31731;DHT22;18310;55.586;12.286;2023-03-01T03:57:48;3.70;71.90
31731;DHT22;18310;55.586;12.286;2023-03-01T04:01:00;3.70;71.90
31731;DHT22;18310;55.586;12.286;2023-03-01T04:04:05;3.70;72.00
31731;DHT22;18310;55.586;12.286;2023-03-01T04:07:09;3.70;72.20
31731;DHT22;18310;55.586;12.286;2023-03-01T04:10:16;3.70;72.30
31731;DHT22;18310;55.586;12.286;2023-03-01T04:13:23;3.70;72.20
31731;DHT22;18310;55.586;12.286;2023-03-01T04:16:27;3.70;72.10
31731;DHT22;18310;55.586;12.286;2023-03-01T04:19:33;3.70;72.60
31731;DHT22;18310;55.586;12.286;2023-03-01T04:22:39;3.60;72.10
31731;DHT22;18310;55.586;12.286;2023-03-01T04:25:46;3.60;72.10
31731;DHT22;18310;55.586;12.286;2023-03-01T04:28:56;3.50;72.30
31731;DHT22;18310;55.586;12.286;2023-03-01T04:32:01;3.50;72.40
31731;DHT22;18310;55.586;12.286;2023-03-01T04:35:08;3.50;72.60
31731;DHT22;18310;55.586;12.286;2023-03-01T04:38:16;3.50;72.90
31731;DHT22;18310;55.586;12.286;2023-03-01T04:41:24;3.50;73.10
31731;DHT22;18310;55.586;12.286;2023-03-01T04:44:32;3.40;73.30
31731;DHT22;18310;55.586;12.286;2023-03-01T04:47:35;3.40;73.50
31731;DHT22;18310;55.586;12.286;2023-03-01T04:50:41;3.40;73.60
31731;DHT22;18310;55.586;12.286;2023-03-01T04:53:45;3.50;73.60
31731;DHT22;18310;55.586;12.286;2023-03-01T04:56:49;3.50;73.50
31731;DHT22;18310;55.586;12.286;2023-03-01T04:59:52;3.40;73.50
31731;DHT22;18310;55.586;12.286;2023-03-01T05:03:01;3.40;73.50
31731;DHT22;18310;55.586;12.286;2023-03-01T05:06:07;2.00;73.00
31731;DHT22;18310;55.586;12.286;2023-03-01T05:09:14;3.40;73.60
31731;DHT22;18310;55.586;12.286;2023-03-01T05:12:21;3.30;73.50
31731;DHT22;18310;55.586;12.286;2023-03-01T05:15:24;3.30;73.60
31731;DHT22;18310;55.586;12.286;2023-03-01T05:18:33;3.30;73.50
31731;DHT22;18310;55.586;12.286;2023-03-01T05:21:39;3.30;73.50
31731;DHT22;18310;55.586;12.286;2023-03-01T05:25:05;3.20;73.60
31731;DHT22;18310;55.586;12.286;2023-03-01T05:28:11;3.20;73.60
31731;DHT22;18310;55.586;12.286;2023-03-01T05:31:14;3.20;73.70
31731;DHT22;18310;55.586;12.286;2023-03-01T05:34:18;5.40;75.00
31731;DHT22;18310;55.586;12.286;2023-03-01T05:37:26;3.20;75.10
31731;DHT22;18310;55.586;12.286;2023-03-01T05:40:32;3.20;73.70
31731;DHT22;18310;55.586;12.286;2023-03-01T05:43:37;4.00;74.10
31731;DHT22;18310;55.586;12.286;2023-03-01T05:46:43;3.20;73.70
31731;DHT22;18310;55.586;12.286;2023-03-01T05:49:47;3.10;73.60
31731;DHT22;18310;55.586;12.286;2023-03-01T05:52:58;5.10;74.70
31731;DHT22;18310;55.586;12.286;2023-03-01T05:56:03;3.90;74.30
31731;DHT22;18310;55.586;12.286;2023-03-01T05:59:16;3.10;73.70
31731;DHT22;18310;55.586;12.286;2023-03-01T06:02:20;3.10;73.90
31731;DHT22;18310;55.586;12.286;2023-03-01T06:05:24;3.00;73.90
31731;DHT22;18310;55.586;12.286;2023-03-01T06:08:31;3.00;74.00
31731;DHT22;18310;55.586;12.286;2023-03-01T06:11:37;3.00;74.00
31731;DHT22;18310;55.586;12.286;2023-03-01T06:14:41;3.00;74.10
31731;DHT22;18310;55.586;12.286;2023-03-01T06:17:49;2.90;74.10
31731;DHT22;18310;55.586;12.286;2023-03-01T06:21:06;2.90;74.20
31731;DHT22;18310;55.586;12.286;2023-03-01T06:24:13;2.90;74.00
31731;DHT22;18310;55.586;12.286;2023-03-01T06:27:17;3.40;74.40
31731;DHT22;18310;55.586;12.286;2023-03-01T06:30:28;2.90;74.90
31731;DHT22;18310;55.586;12.286;2023-03-01T06:33:34;2.90;74.40
31731;DHT22;18310;55.586;12.286;2023-03-01T06:37:01;2.90;74.20
31731;DHT22;18310;55.586;12.286;2023-03-01T06:40:14;2.90;74.30
31731;DHT22;18310;55.586;12.286;2023-03-01T06:43:19;3.00;74.70
31731;DHT22;18310;55.586;12.286;2023-03-01T06:46:30;3.50;74.80
31731;DHT22;18310;55.586;12.286;2023-03-01T06:49:41;3.00;74.50
31731;DHT22;18310;55.586;12.286;2023-03-01T06:52:46;3.00;74.50
31731;DHT22;18310;55.586;12.286;2023-03-01T06:55:58;3.10;74.60
31731;DHT22;18310;55.586;12.286;2023-03-01T06:59:06;3.60;75.10
31731;DHT22;18310;55.586;12.286;2023-03-01T07:02:20;4.00;75.20
31731;DHT22;18310;55.586;12.286;2023-03-01T07:05:24;3.10;74.60
31731;DHT22;18310;55.586;12.286;2023-03-01T07:08:33;3.10;74.80
31731;DHT22;18310;55.586;12.286;2023-03-01T07:11:38;3.10;74.80
31731;DHT22;18310;55.586;12.286;2023-03-01T07:14:43;3.20;75.30
31731;DHT22;18310;55.586;12.286;2023-03-01T07:17:47;3.30;75.30
31731;DHT22;18310;55.586;12.286;2023-03-01T07:20:53;3.90;75.70
31731;DHT22;18310;55.586;12.286;2023-03-01T07:23:59;3.40;75.40
31731;DHT22;18310;55.586;12.286;2023-03-01T07:27:19;3.40;75.30
31731;DHT22;18310;55.586;12.286;2023-03-01T07:30:26;3.50;76.00
31731;DHT22;18310;55.586;12.286;2023-03-01T07:33:30;3.60;75.60
31731;DHT22;18310;55.586;12.286;2023-03-01T07:36:40;3.60;75.60
31731;DHT22;18310;55.586;12.286;2023-03-01T07:40:04;3.80;75.90
31731;DHT22;18310;55.586;12.286;2023-03-01T07:43:12;3.90;75.80
31731;DHT22;18310;55.586;12.286;2023-03-01T07:46:16;3.90;75.50
31731;DHT22;18310;55.586;12.286;2023-03-01T07:49:22;4.00;75.40
31731;DHT22;18310;55.586;12.286;2023-03-01T07:52:28;4.10;75.50
31731;DHT22;18310;55.586;12.286;2023-03-01T07:55:32;4.10;75.30
31731;DHT22;18310;55.586;12.286;2023-03-01T07:58:40;4.20;75.90
31731;DHT22;18310;55.586;12.286;2023-03-01T08:01:44;4.30;75.40
31731;DHT22;18310;55.586;12.286;2023-03-01T08:04:53;4.40;75.40
31731;DHT22;18310;55.586;12.286;2023-03-01T08:07:57;4.50;75.40
31731;DHT22;18310;55.586;12.286;2023-03-01T08:11:02;4.80;75.50
31731;DHT22;18310;55.586;12.286;2023-03-01T08:14:09;5.80;76.90
31731;DHT22;18310;55.586;12.286;2023-03-01T08:17:16;4.70;75.00
31731;DHT22;18310;55.586;12.286;2023-03-01T08:20:22;4.70;75.10
31731;DHT22;18310;55.586;12.286;2023-03-01T08:23:27;4.80;75.00
31731;DHT22;18310;55.586;12.286;2023-03-01T08:26:33;4.90;75.10
31731;DHT22;18310;55.586;12.286;2023-03-01T08:29:39;5.00;75.00
31731;DHT22;18310;55.586;12.286;2023-03-01T08:32:44;5.10;74.80
31731;DHT22;18310;55.586;12.286;2023-03-01T08:35:48;5.10;74.80
31731;DHT22;18310;55.586;12.286;2023-03-01T08:38:52;4.10;74.20
31731;DHT22;18310;55.586;12.286;2023-03-01T08:41:57;5.30;74.70
31731;DHT22;18310;55.586;12.286;2023-03-01T08:45:02;5.30;74.60
31731;DHT22;18310;55.586;12.286;2023-03-01T08:48:06;5.40;74.70
31731;DHT22;18310;55.586;12.286;2023-03-01T08:51:17;5.50;74.80
31731;DHT22;18310;55.586;12.286;2023-03-01T08:54:26;5.60;74.90
31731;DHT22;18310;55.586;12.286;2023-03-01T08:57:41;5.70;74.80
31731;DHT22;18310;55.586;12.286;2023-03-01T09:00:46;5.80;74.80
31731;DHT22;18310;55.586;12.286;2023-03-01T09:03:50;5.90;75.00
31731;DHT22;18310;55.586;12.286;2023-03-01T09:06:55;7.50;75.90
31731;DHT22;18310;55.586;12.286;2023-03-01T09:09:59;6.20;75.00
31731;DHT22;18310;55.586;12.286;2023-03-01T09:13:08;6.40;75.70
31731;DHT22;18310;55.586;12.286;2023-03-01T09:16:19;6.50;75.10
31731;DHT22;18310;55.586;12.286;2023-03-01T09:19:23;6.60;75.00
31731;DHT22;18310;55.586;12.286;2023-03-01T09:22:30;7.20;74.90
31731;DHT22;18310;55.586;12.286;2023-03-01T09:25:36;7.10;74.50
31731;DHT22;18310;55.586;12.286;2023-03-01T09:28:39;6.60;73.70
31731;DHT22;18310;55.586;12.286;2023-03-01T09:31:50;7.50;74.60
31731;DHT22;18310;55.586;12.286;2023-03-01T09:35:08;7.00;73.20
31731;DHT22;18310;55.586;12.286;2023-03-01T09:38:50;7.00;72.90
31731;DHT22;18310;55.586;12.286;2023-03-01T09:42:36;7.00;72.60
31731;DHT22;18310;55.586;12.286;2023-03-01T09:46:17;7.50;73.10
31731;DHT22;18310;55.586;12.286;2023-03-01T09:49:31;7.10;72.60
31731;DHT22;18310;55.586;12.286;2023-03-01T09:52:53;7.10;72.50
31731;DHT22;18310;55.586;12.286;2023-03-01T09:56:44;7.10;72.60
31731;DHT22;18310;55.586;12.286;2023-03-01T10:00:37;7.20;72.60
31731;DHT22;18310;55.586;12.286;2023-03-01T10:04:02;7.30;72.40
31731;DHT22;18310;55.586;12.286;2023-03-01T10:07:43;7.30;72.30
31731;DHT22;18310;55.586;12.286;2023-03-01T10:10:54;7.40;72.20
31731;DHT22;18310;55.586;12.286;2023-03-01T10:14:05;7.40;72.20
31731;DHT22;18310;55.586;12.286;2023-03-01T10:17:25;7.60;72.20
31731;DHT22;18310;55.586;12.286;2023-03-01T10:20:43;7.50;72.20
31731;DHT22;18310;55.586;12.286;2023-03-01T10:23:59;7.60;72.20
31731;DHT22;18310;55.586;12.286;2023-03-01T10:27:15;7.70;72.10
31731;DHT22;18310;55.586;12.286;2023-03-01T10:30:32;7.70;72.10
31731;DHT22;18310;55.586;12.286;2023-03-01T10:33:41;7.80;72.10
31731;DHT22;18310;55.586;12.286;2023-03-01T10:36:48;7.90;72.10
31731;DHT22;18310;55.586;12.286;2023-03-01T10:39:58;7.90;71.90
31731;DHT22;18310;55.586;12.286;2023-03-01T10:43:12;8.00;71.80
31731;DHT22;18310;55.586;12.286;2023-03-01T10:46:26;8.00;71.90
31731;DHT22;18310;55.586;12.286;2023-03-01T10:49:31;8.00;71.90
31731;DHT22;18310;55.586;12.286;2023-03-01T10:52:41;8.10;71.90
31731;DHT22;18310;55.586;12.286;2023-03-01T10:56:08;9.30;72.60
31731;DHT22;18310;55.586;12.286;2023-03-01T10:59:26;7.00;71.20
31731;DHT22;18310;55.586;12.286;2023-03-01T11:02:31;8.40;71.80
31731;DHT22;18310;55.586;12.286;2023-03-01T11:06:02;8.30;71.80
31731;DHT22;18310;55.586;12.286;2023-03-01T11:09:19;8.50;71.80
31731;DHT22;18310;55.586;12.286;2023-03-01T11:12:27;8.50;71.20
31731;DHT22;18310;55.586;12.286;2023-03-01T11:15:43;8.60;71.50
31731;DHT22;18310;55.586;12.286;2023-03-01T11:19:20;7.60;70.80
31731;DHT22;18310;55.586;12.286;2023-03-01T11:22:24;10.00;71.40
31731;DHT22;18310;55.586;12.286;2023-03-01T11:25:31;9.00;71.00
31731;DHT22;18310;55.586;12.286;2023-03-01T11:28:40;10.10;71.30
31731;DHT22;18310;55.586;12.286;2023-03-01T11:31:51;10.60;71.00
31731;DHT22;18310;55.586;12.286;2023-03-01T11:35:04;9.20;69.90
31731;DHT22;18310;55.586;12.286;2023-03-01T11:38:21;9.30;69.80
31731;DHT22;18310;55.586;12.286;2023-03-01T11:41:31;9.40;69.70
31731;DHT22;18310;55.586;12.286;2023-03-01T11:44:47;9.40;69.60
31731;DHT22;18310;55.586;12.286;2023-03-01T11:48:06;11.20;70.20
31731;DHT22;18310;55.586;12.286;2023-03-01T11:51:24;9.50;69.10
31731;DHT22;18310;55.586;12.286;2023-03-01T11:54:54;11.20;70.00
31731;DHT22;18310;55.586;12.286;2023-03-01T11:58:35;9.70;68.70
31731;DHT22;18310;55.586;12.286;2023-03-01T12:09:45;8.50;66.90
31731;DHT22;18310;55.586;12.286;2023-03-01T12:13:21;10.00;67.50
31731;DHT22;18310;55.586;12.286;2023-03-01T12:17:07;9.60;66.90
31731;DHT22;18310;55.586;12.286;2023-03-01T12:20:35;10.10;67.30
31731;DHT22;18310;55.586;12.286;2023-03-01T12:28:14;10.20;67.20
31731;DHT22;18310;55.586;12.286;2023-03-01T12:32:05;10.30;66.70
31731;DHT22;18310;55.586;12.286;2023-03-01T12:35:46;10.30;66.50
31731;DHT22;18310;55.586;12.286;2023-03-01T12:39:04;10.30;66.60
31731;DHT22;18310;55.586;12.286;2023-03-01T12:42:27;10.40;67.00
31731;DHT22;18310;55.586;12.286;2023-03-01T12:46:00;10.40;67.00
31731;DHT22;18310;55.586;12.286;2023-03-01T12:49:24;10.40;66.50
31731;DHT22;18310;55.586;12.286;2023-03-01T12:52:37;10.50;66.20
31731;DHT22;18310;55.586;12.286;2023-03-01T12:55:44;10.80;66.30
31731;DHT22;18310;55.586;12.286;2023-03-01T12:58:56;10.60;66.40
31731;DHT22;18310;55.586;12.286;2023-03-01T13:02:14;11.00;65.20
31731;DHT22;18310;55.586;12.286;2023-03-01T13:05:33;10.60;65.00
31731;DHT22;18310;55.586;12.286;2023-03-01T13:08:46;10.70;64.80
31731;DHT22;18310;55.586;12.286;2023-03-01T13:11:57;10.70;64.70
31731;DHT22;18310;55.586;12.286;2023-03-01T13:15:13;10.70;64.70
31731;DHT22;18310;55.586;12.286;2023-03-01T13:18:30;10.80;64.30
31731;DHT22;18310;55.586;12.286;2023-03-01T13:21:37;10.80;64.00
31731;DHT22;18310;55.586;12.286;2023-03-01T13:24:42;11.70;64.70
31731;DHT22;18310;55.586;12.286;2023-03-01T13:27:46;10.80;64.30
31731;DHT22;18310;55.586;12.286;2023-03-01T13:30:50;11.00;64.80
31731;DHT22;18310;55.586;12.286;2023-03-01T13:33:54;10.90;64.90
31731;DHT22;18310;55.586;12.286;2023-03-01T13:37:09;10.90;64.80
31731;DHT22;18310;55.586;12.286;2023-03-01T13:40:59;11.00;63.60
31731;DHT22;18310;55.586;12.286;2023-03-01T13:44:12;12.30;64.60
31731;DHT22;18310;55.586;12.286;2023-03-01T13:47:22;11.00;63.90
31731;DHT22;18310;55.586;12.286;2023-03-01T13:50:28;11.00;64.30
31731;DHT22;18310;55.586;12.286;2023-03-01T13:53:41;11.00;64.00
31731;DHT22;18310;55.586;12.286;2023-03-01T13:56:50;11.00;64.30
31731;DHT22;18310;55.586;12.286;2023-03-01T13:59:54;11.00;64.50
31731;DHT22;18310;55.586;12.286;2023-03-01T14:03:03;11.00;64.30
31731;DHT22;18310;55.586;12.286;2023-03-01T14:06:13;11.10;64.10
31731;DHT22;18310;55.586;12.286;2023-03-01T14:09:25;11.10;64.00
31731;DHT22;18310;55.586;12.286;2023-03-01T14:12:41;11.10;63.70
31731;DHT22;18310;55.586;12.286;2023-03-01T14:16:06;11.10;63.50
31731;DHT22;18310;55.586;12.286;2023-03-01T14:19:24;11.10;63.40
31731;DHT22;18310;55.586;12.286;2023-03-01T14:22:35;11.10;63.60
31731;DHT22;18310;55.586;12.286;2023-03-01T14:25:48;11.00;63.60
31731;DHT22;18310;55.586;12.286;2023-03-01T14:28:54;11.00;63.10
31731;DHT22;18310;55.586;12.286;2023-03-01T14:32:09;11.00;63.20
31731;DHT22;18310;55.586;12.286;2023-03-01T14:35:21;10.60;62.60
31731;DHT22;18310;55.586;12.286;2023-03-01T14:38:32;11.00;62.90
31731;DHT22;18310;55.586;12.286;2023-03-01T14:41:40;11.00;62.60
31731;DHT22;18310;55.586;12.286;2023-03-01T14:44:47;11.00;62.40
31731;DHT22;18310;55.586;12.286;2023-03-01T14:48:00;11.60;62.50
31731;DHT22;18310;55.586;12.286;2023-03-01T14:51:11;10.90;62.00
31731;DHT22;18310;55.586;12.286;2023-03-01T14:54:25;10.90;62.40
31731;DHT22;18310;55.586;12.286;2023-03-01T14:57:32;10.90;62.10
31731;DHT22;18310;55.586;12.286;2023-03-01T15:00:57;10.90;62.30
31731;DHT22;18310;55.586;12.286;2023-03-01T15:04:08;10.80;62.20
31731;DHT22;18310;55.586;12.286;2023-03-01T15:07:18;10.40;61.90
31731;DHT22;18310;55.586;12.286;2023-03-01T15:10:26;10.70;62.20
31731;DHT22;18310;55.586;12.286;2023-03-01T15:13:33;10.40;61.80
31731;DHT22;18310;55.586;12.286;2023-03-01T15:16:39;10.60;62.30
31731;DHT22;18310;55.586;12.286;2023-03-01T15:19:49;10.60;62.00
31731;DHT22;18310;55.586;12.286;2023-03-01T15:22:55;10.50;62.10
31731;DHT22;18310;55.586;12.286;2023-03-01T15:26:01;10.50;62.10
31731;DHT22;18310;55.586;12.286;2023-03-01T15:29:18;10.40;61.80
31731;DHT22;18310;55.586;12.286;2023-03-01T15:32:37;10.40;61.80
31731;DHT22;18310;55.586;12.286;2023-03-01T15:35:52;10.40;62.10
31731;DHT22;18310;55.586;12.286;2023-03-01T15:39:05;10.30;62.10
31731;DHT22;18310;55.586;12.286;2023-03-01T15:42:42;10.20;62.20
31731;DHT22;18310;55.586;12.286;2023-03-01T15:45:57;9.90;62.20
31731;DHT22;18310;55.586;12.286;2023-03-01T15:49:25;10.10;62.30
31731;DHT22;18310;55.586;12.286;2023-03-01T15:52:56;10.00;62.20
31731;DHT22;18310;55.586;12.286;2023-03-01T15:56:13;9.90;62.50
31731;DHT22;18310;55.586;12.286;2023-03-01T15:59:38;8.00;61.90
31731;DHT22;18310;55.586;12.286;2023-03-01T16:02:50;9.80;62.40
31731;DHT22;18310;55.586;12.286;2023-03-01T16:05:57;9.70;62.50
31731;DHT22;18310;55.586;12.286;2023-03-01T16:09:13;10.70;63.10
31731;DHT22;18310;55.586;12.286;2023-03-01T16:12:24;9.60;62.60
31731;DHT22;18310;55.586;12.286;2023-03-01T16:15:41;9.50;62.60
31731;DHT22;18310;55.586;12.286;2023-03-01T16:18:50;9.50;62.60
31731;DHT22;18310;55.586;12.286;2023-03-01T16:21:56;9.40;62.60
31731;DHT22;18310;55.586;12.286;2023-03-01T16:25:08;9.30;62.70
31731;DHT22;18310;55.586;12.286;2023-03-01T16:28:12;9.20;62.70
31731;DHT22;18310;55.586;12.286;2023-03-01T16:31:19;9.10;62.60
31731;DHT22;18310;55.586;12.286;2023-03-01T16:34:25;8.80;62.50
31731;DHT22;18310;55.586;12.286;2023-03-01T16:37:33;8.90;62.70
31731;DHT22;18310;55.586;12.286;2023-03-01T16:40:38;8.60;62.30
31731;DHT22;18310;55.586;12.286;2023-03-01T16:43:42;8.80;62.90
31731;DHT22;18310;55.586;12.286;2023-03-01T16:46:49;8.70;62.90
31731;DHT22;18310;55.586;12.286;2023-03-01T16:50:03;8.60;62.90
31731;DHT22;18310;55.586;12.286;2023-03-01T16:53:18;8.50;62.90
31731;DHT22;18310;55.586;12.286;2023-03-01T16:56:24;8.40;62.90
31731;DHT22;18310;55.586;12.286;2023-03-01T16:59:28;8.30;63.00
31731;DHT22;18310;55.586;12.286;2023-03-01T17:02:53;8.20;63.10
31731;DHT22;18310;55.586;12.286;2023-03-01T17:06:19;8.10;62.90
31731;DHT22;18310;55.586;12.286;2023-03-01T17:09:37;8.00;63.00
31731;DHT22;18310;55.586;12.286;2023-03-01T17:12:53;7.80;63.10
31731;DHT22;18310;55.586;12.286;2023-03-01T17:15:57;7.70;63.30
31731;DHT22;18310;55.586;12.286;2023-03-01T17:19:01;7.60;63.60
31731;DHT22;18310;55.586;12.286;2023-03-01T17:22:07;7.50;63.80
31731;DHT22;18310;55.586;12.286;2023-03-01T17:25:11;7.00;63.70
31731;DHT22;18310;55.586;12.286;2023-03-01T17:28:15;7.30;64.10
31731;DHT22;18310;55.586;12.286;2023-03-01T17:31:19;7.20;64.30
31731;DHT22;18310;55.586;12.286;2023-03-01T17:34:24;7.10;64.40
31731;DHT22;18310;55.586;12.286;2023-03-01T17:37:31;7.00;64.70
31731;DHT22;18310;55.586;12.286;2023-03-01T17:40:43;6.90;64.80
31731;DHT22;18310;55.586;12.286;2023-03-01T17:43:58;6.80;65.00
31731;DHT22;18310;55.586;12.286;2023-03-01T17:47:04;6.80;65.30
31731;DHT22;18310;55.586;12.286;2023-03-01T17:50:11;6.70;65.50
31731;DHT22;18310;55.586;12.286;2023-03-01T17:53:16;4.90;64.60
31731;DHT22;18310;55.586;12.286;2023-03-01T17:56:23;6.50;65.80
31731;DHT22;18310;55.586;12.286;2023-03-01T17:59:28;6.40;66.10
31731;DHT22;18310;55.586;12.286;2023-03-01T18:02:36;6.30;66.20
31731;DHT22;18310;55.586;12.286;2023-03-01T18:05:40;6.30;66.40
31731;DHT22;18310;55.586;12.286;2023-03-01T18:08:47;6.20;66.70
31731;DHT22;18310;55.586;12.286;2023-03-01T18:11:52;6.10;66.70
31731;DHT22;18310;55.586;12.286;2023-03-01T18:14:57;6.00;67.00
31731;DHT22;18310;55.586;12.286;2023-03-01T18:18:02;7.90;68.30
31731;DHT22;18310;55.586;12.286;2023-03-01T18:21:06;6.00;67.40
31731;DHT22;18310;55.586;12.286;2023-03-01T18:24:12;5.90;67.50
31731;DHT22;18310;55.586;12.286;2023-03-01T18:27:16;5.80;67.60
31731;DHT22;18310;55.586;12.286;2023-03-01T18:30:20;5.80;67.80
31731;DHT22;18310;55.586;12.286;2023-03-01T18:33:27;5.80;68.00
31731;DHT22;18310;55.586;12.286;2023-03-01T18:36:33;5.70;69.20
31731;DHT22;18310;55.586;12.286;2023-03-01T18:39:49;5.70;68.10
31731;DHT22;18310;55.586;12.286;2023-03-01T18:43:00;5.00;68.20
31731;DHT22;18310;55.586;12.286;2023-03-01T18:46:04;5.60;68.40
31731;DHT22;18310;55.586;12.286;2023-03-01T18:49:09;5.50;68.60
31731;DHT22;18310;55.586;12.286;2023-03-01T18:52:13;5.50;68.60
31731;DHT22;18310;55.586;12.286;2023-03-01T18:55:19;5.40;68.70
31731;DHT22;18310;55.586;12.286;2023-03-01T18:58:25;5.40;68.90
31731;DHT22;18310;55.586;12.286;2023-03-01T19:01:32;5.90;69.30
31731;DHT22;18310;55.586;12.286;2023-03-01T19:04:39;7.30;70.10
31731;DHT22;18310;55.586;12.286;2023-03-01T19:07:54;5.30;69.10
31731;DHT22;18310;55.586;12.286;2023-03-01T19:11:17;6.70;70.40
31731;DHT22;18310;55.586;12.286;2023-03-01T19:14:21;5.20;69.20
31731;DHT22;18310;55.586;12.286;2023-03-01T19:17:29;5.20;69.20
31731;DHT22;18310;55.586;12.286;2023-03-01T19:20:34;6.50;70.30
31731;DHT22;18310;55.586;12.286;2023-03-01T19:23:43;5.10;69.40
31731;DHT22;18310;55.586;12.286;2023-03-01T19:26:48;5.10;69.80
31731;DHT22;18310;55.586;12.286;2023-03-01T19:29:55;5.00;69.80
31731;DHT22;18310;55.586;12.286;2023-03-01T19:32:59;5.00;69.90
31731;DHT22;18310;55.586;12.286;2023-03-01T19:36:04;3.40;69.20
31731;DHT22;18310;55.586;12.286;2023-03-01T19:39:11;4.90;70.30
31731;DHT22;18310;55.586;12.286;2023-03-01T19:42:18;4.80;70.20
31731;DHT22;18310;55.586;12.286;2023-03-01T19:45:28;4.80;70.40
31731;DHT22;18310;55.586;12.286;2023-03-01T19:48:35;2.70;69.20
31731;DHT22;18310;55.586;12.286;2023-03-01T19:51:41;4.70;70.50
31731;DHT22;18310;55.586;12.286;2023-03-01T19:54:44;5.00;70.90
31731;DHT22;18310;55.586;12.286;2023-03-01T19:57:49;4.70;70.90
31731;DHT22;18310;55.586;12.286;2023-03-01T20:00:53;4.60;71.00
31731;DHT22;18310;55.586;12.286;2023-03-01T20:04:00;6.10;71.70
31731;DHT22;18310;55.586;12.286;2023-03-01T20:07:05;4.50;71.00
31731;DHT22;18310;55.586;12.286;2023-03-01T20:10:10;6.10;71.90
31731;DHT22;18310;55.586;12.286;2023-03-01T20:13:22;4.50;71.30